createdAt,value
2022-10-04T00:00:00.313Z,91.7
2022-10-04T00:05:00.374Z,91.7
2022-10-04T00:10:00.453Z,91.6
2022-10-04T00:15:00.381Z,91.6
2022-10-04T00:20:00.425Z,91.9
2022-10-04T00:25:00.362Z,91.9
2022-10-04T00:30:00.429Z,91.6
2022-10-04T00:35:00.367Z,91.6
2022-10-04T00:40:00.401Z,92.2
2022-10-04T00:45:00.346Z,92.8
2022-10-04T00:50:00.396Z,93.4
2022-10-04T00:55:00.363Z,93.4
2022-10-04T01:00:00.370Z,94.1
2022-10-04T01:05:00.374Z,93.8
2022-10-04T01:10:00.370Z,93.8
2022-10-04T01:15:00.372Z,93.4
2022-10-04T01:20:00.387Z,93.4
2022-10-04T01:25:00.384Z,93.1
2022-10-04T01:30:00.382Z,92.8
2022-10-04T01:35:00.310Z,92.8
2022-10-04T01:40:00.310Z,92.4
2022-10-04T01:45:00.297Z,93
2022-10-04T01:50:00.295Z,93.3
2022-10-04T01:55:00.295Z,93
2022-10-04T02:00:00.309Z,93.3
2022-10-04T02:05:01.377Z,93.3
2022-10-04T02:10:01.324Z,93.6
2022-10-04T02:15:01.285Z,93.3
2022-10-04T02:20:01.306Z,93.3
2022-10-04T02:25:01.298Z,93.6
2022-10-04T02:30:01.325Z,93.6
2022-10-04T02:35:01.303Z,93.6
2022-10-04T02:40:01.327Z,93.6
2022-10-04T02:45:01.324Z,93.9
2022-10-04T02:50:01.340Z,93.9
2022-10-04T02:55:01.343Z,93.9
2022-10-04T03:00:01.347Z,94.2
2022-10-04T03:05:01.333Z,93.9
2022-10-04T03:10:01.344Z,93.9
2022-10-04T03:15:01.400Z,93.6
2022-10-04T03:20:01.389Z,93.3
2022-10-04T03:25:01.382Z,93.3
2022-10-04T03:30:01.383Z,93.3
2022-10-04T03:35:01.363Z,93.3
2022-10-04T03:40:01.393Z,93.3
2022-10-04T03:45:01.364Z,93
2022-10-04T03:50:01.376Z,93.9
2022-10-04T03:55:01.385Z,93.3
2022-10-04T04:00:01.414Z,93.6
2022-10-04T04:05:01.398Z,93.3
2022-10-04T04:10:01.411Z,93
2022-10-04T04:15:01.418Z,92.6
2022-10-04T04:20:06.137Z,92.6
2022-10-04T04:25:01.419Z,92.6
2022-10-04T04:30:01.444Z,92.6
2022-10-04T04:35:01.424Z,92.9
2022-10-04T04:40:00.152Z,92.9
2022-10-04T04:45:00.349Z,93.2
2022-10-04T04:50:00.189Z,93.2
2022-10-04T04:55:00.188Z,93.2
2022-10-04T05:00:00.218Z,93.5
2022-10-04T05:05:00.215Z,93.9
2022-10-04T05:10:00.198Z,93.9
2022-10-04T05:15:00.225Z,93.3
2022-10-04T05:20:00.203Z,93.6
2022-10-04T05:25:00.207Z,93.2
2022-10-04T05:30:00.263Z,93.2
2022-10-04T05:35:00.244Z,93.5
2022-10-04T05:40:00.237Z,93.5
2022-10-04T05:45:00.255Z,93.6
2022-10-04T05:50:00.246Z,93.5
2022-10-04T05:55:00.269Z,93.6
2022-10-04T06:00:04.183Z,93.9
2022-10-04T06:05:00.273Z,94.2
2022-10-04T06:10:00.255Z,93.9
2022-10-04T06:15:00.286Z,93.9
2022-10-04T06:20:00.280Z,93.9
2022-10-04T06:25:00.295Z,93.6
2022-10-04T06:30:00.299Z,93.7
2022-10-04T06:35:00.291Z,93.4
2022-10-04T06:40:00.299Z,93.4
2022-10-04T06:45:00.316Z,93.7
2022-10-04T06:50:00.370Z,93.5
2022-10-04T06:55:00.315Z,93.2
2022-10-04T07:00:00.328Z,92.3
2022-10-04T07:05:08.557Z,92.3
2022-10-04T07:10:00.365Z,92.3
2022-10-04T07:15:00.356Z,92.4
2022-10-04T07:20:00.337Z,92.4
2022-10-04T07:25:00.346Z,91.8
2022-10-04T07:30:00.344Z,90.9
2022-10-04T07:35:00.364Z,90
2022-10-04T07:40:00.351Z,89.1
2022-10-04T07:45:00.377Z,88.9
2022-10-04T07:50:00.366Z,88.9
2022-10-04T07:55:00.378Z,87.1
2022-10-04T08:00:00.383Z,85.6
2022-10-04T08:05:00.384Z,85.9
2022-10-04T08:10:00.414Z,85.3
2022-10-04T08:15:00.422Z,85.3
2022-10-04T08:20:00.396Z,85.3
2022-10-04T08:25:00.408Z,83.8
2022-10-04T08:30:00.410Z,84.7
2022-10-04T08:35:00.413Z,83.8
2022-10-04T08:40:00.421Z,83.3
2022-10-04T08:45:00.416Z,81.1
2022-10-04T08:50:00.418Z,81.8
2022-10-04T08:55:00.420Z,81.5
2022-10-04T09:00:00.476Z,81.2
2022-10-04T09:05:00.441Z,80.6
2022-10-04T09:10:00.439Z,80
2022-10-04T09:15:00.475Z,78.7
2022-10-04T09:20:19.742Z,80
2022-10-04T09:25:00.478Z,79.3
2022-10-04T09:30:00.457Z,80.3
2022-10-04T09:35:00.490Z,80.4
2022-10-04T09:40:00.495Z,79.4
2022-10-04T09:45:00.496Z,78.9
2022-10-04T09:50:00.494Z,78.2
2022-10-04T09:55:00.495Z,78.9
2022-10-04T10:00:00.505Z,77.3
2022-10-04T10:05:00.515Z,76.4
2022-10-04T10:10:00.540Z,75.2
2022-10-04T10:15:00.545Z,74.2
2022-10-04T10:20:00.526Z,76.5
2022-10-04T10:25:00.529Z,75.9
2022-10-04T10:30:00.542Z,74.3
2022-10-04T10:35:00.439Z,73.7
2022-10-04T10:40:00.288Z,71.8
2022-10-04T10:45:00.147Z,72.1
2022-10-04T10:50:00.139Z,74.6
2022-10-04T10:55:00.134Z,73.3
2022-10-04T11:00:00.145Z,74.3
2022-10-04T11:05:00.138Z,73.4
2022-10-04T11:10:00.189Z,72.8
2022-10-04T11:15:00.136Z,71
2022-10-04T11:20:00.216Z,71.9
2022-10-04T11:25:00.181Z,71
2022-10-04T11:30:00.149Z,73.2
2022-10-04T11:35:00.200Z,72
2022-10-04T11:40:00.197Z,69.7
2022-10-04T11:45:00.180Z,70.7
2022-10-04T11:50:00.186Z,71
2022-10-04T11:55:00.193Z,70.4
2022-10-04T12:00:00.232Z,70.4
2022-10-04T12:05:00.298Z,71.7
2022-10-04T12:10:01.220Z,70.7
2022-10-04T12:15:00.218Z,68.2
2022-10-04T12:20:00.234Z,70.4
2022-10-04T12:25:00.234Z,69.8
2022-10-04T12:30:00.259Z,68.2
2022-10-04T12:35:00.245Z,68.6
2022-10-04T12:40:00.243Z,69.2
2022-10-04T12:45:00.255Z,67.9
2022-10-04T12:50:00.254Z,68.6
2022-10-04T12:55:00.250Z,67.3
2022-10-04T13:00:00.266Z,68.6
2022-10-04T13:05:00.275Z,68.6
2022-10-04T13:10:22.962Z,67.9
2022-10-04T13:15:00.302Z,68.9
2022-10-04T13:20:00.310Z,69.5
2022-10-04T13:25:00.308Z,67.9
2022-10-04T13:30:00.327Z,69.2
2022-10-04T13:35:00.297Z,68.5
2022-10-04T13:40:00.309Z,69.5
2022-10-04T13:45:00.316Z,70.4
2022-10-04T13:50:00.313Z,70.4
2022-10-04T13:55:00.309Z,69.8
2022-10-04T14:00:00.322Z,71.4
2022-10-04T14:05:00.326Z,71.7
2022-10-04T14:10:00.329Z,70.7
2022-10-04T14:15:00.343Z,71
2022-10-04T14:20:00.440Z,71.6
2022-10-04T14:25:00.452Z,72.3
2022-10-04T14:30:00.440Z,72.3
2022-10-04T14:35:00.532Z,72.3
2022-10-04T14:40:00.481Z,71.6
2022-10-04T14:45:00.364Z,71.6
2022-10-04T14:50:01.047Z,72.3
2022-10-04T14:55:04.021Z,72.3
2022-10-04T15:00:02.188Z,71
2022-10-04T15:05:00.584Z,72.3
2022-10-04T15:10:00.613Z,72.9
2022-10-04T15:15:00.385Z,72.8
2022-10-04T15:20:00.555Z,72.2
2022-10-04T15:25:00.544Z,73.8
2022-10-04T15:30:00.412Z,74.4
2022-10-04T15:35:00.527Z,74.7
2022-10-04T15:40:00.525Z,75.3
2022-10-04T15:45:00.542Z,75.6
2022-10-04T15:50:00.486Z,76.5
2022-10-04T15:55:00.537Z,77.1
2022-10-04T16:00:00.545Z,77.1
2022-10-04T16:05:00.575Z,77.4
2022-10-04T16:10:00.496Z,78
2022-10-04T16:15:00.505Z,78.3
2022-10-04T16:20:00.469Z,78.6
2022-10-04T16:25:00.465Z,78.9
2022-10-04T16:30:25.026Z,79.8
2022-10-04T16:35:00.358Z,80.1
2022-10-04T16:40:00.304Z,80.1
2022-10-04T16:45:00.127Z,80.3
2022-10-04T16:50:00.171Z,80.6
2022-10-04T16:55:00.154Z,80.6
2022-10-04T17:00:00.158Z,81.2
2022-10-04T17:05:00.127Z,81.8
2022-10-04T17:10:00.139Z,82.3
2022-10-04T17:15:00.244Z,82.9
2022-10-04T17:20:00.123Z,82.3
2022-10-04T17:25:00.147Z,83.2
2022-10-04T17:30:00.195Z,83.8
2022-10-04T17:35:00.130Z,84.1
2022-10-04T17:40:01.584Z,84.3
2022-10-04T17:45:00.195Z,85.2
2022-10-04T17:50:00.173Z,85.2
2022-10-04T17:55:00.185Z,85.8
2022-10-04T18:00:00.206Z,86.4
2022-10-04T18:05:00.208Z,86.4
2022-10-04T18:10:00.255Z,87
2022-10-04T18:15:00.232Z,86.7
2022-10-04T18:20:00.201Z,86.4
2022-10-04T18:25:00.216Z,86.3
2022-10-04T18:30:00.242Z,87
2022-10-04T18:35:00.228Z,87.6
2022-10-04T18:40:00.274Z,87.8
2022-10-04T18:45:00.288Z,88.1
2022-10-04T18:50:00.232Z,88.1
2022-10-04T18:55:00.281Z,89
2022-10-04T19:00:00.274Z,89.4
2022-10-04T19:05:00.272Z,90
2022-10-04T19:10:00.272Z,90
2022-10-04T19:15:00.350Z,90
2022-10-04T19:20:00.397Z,90.6
2022-10-04T19:25:00.307Z,90.6
2022-10-04T19:30:00.293Z,90.5
2022-10-04T19:35:00.340Z,90.8
2022-10-04T19:40:00.323Z,90.5
2022-10-04T19:45:00.313Z,90.8
2022-10-04T19:50:00.298Z,91.1
2022-10-04T19:55:00.374Z,91.1
2022-10-04T20:00:00.321Z,91.1
2022-10-04T20:05:00.336Z,91.1
2022-10-04T20:10:00.341Z,91.7
2022-10-04T20:15:00.329Z,91.7
2022-10-04T20:20:00.370Z,91.4
2022-10-04T20:25:00.384Z,91.1
2022-10-04T20:30:00.369Z,91.1
2022-10-04T20:35:00.354Z,91
2022-10-04T20:40:00.439Z,91.7
2022-10-04T20:45:00.353Z,91.6
2022-10-04T20:50:00.357Z,91.9
2022-10-04T20:55:00.400Z,92.2
2022-10-04T21:00:00.410Z,92.2
2022-10-04T21:05:00.387Z,92.2
2022-10-04T21:20:00.467Z,92.2
2022-10-04T21:25:00.410Z,92.2
2022-10-04T21:30:00.433Z,92.2
2022-10-04T21:35:00.540Z,92.2
2022-10-04T21:40:00.574Z,92.2
2022-10-04T21:45:00.558Z,92.2
2022-10-04T21:50:00.596Z,92.8
2022-10-04T21:55:00.496Z,92.8
2022-10-04T22:00:00.473Z,92.8
2022-10-04T22:05:00.439Z,92.9
2022-10-04T22:10:00.449Z,92.2
2022-10-04T22:15:00.455Z,92.5
2022-10-04T22:20:00.463Z,92.8
2022-10-04T22:25:00.475Z,92.9
2022-10-04T22:30:00.473Z,92.5
2022-10-04T22:35:00.381Z,92.2
2022-10-04T22:40:00.283Z,92.2
2022-10-04T22:45:00.151Z,92.8
2022-10-04T22:50:00.178Z,92.8
2022-10-04T22:55:00.142Z,92.5
2022-10-04T23:00:00.163Z,92.8
2022-10-04T23:05:00.327Z,93.1
2022-10-04T23:10:00.157Z,93.4
2022-10-04T23:15:00.161Z,93.4
2022-10-04T23:20:00.158Z,93.1
2022-10-04T23:25:00.166Z,92.8
2022-10-04T23:30:00.238Z,93.1
2022-10-04T23:35:00.173Z,92.7
2022-10-04T23:40:00.187Z,92.7
2022-10-04T23:45:00.203Z,92.7
2022-10-04T23:50:00.193Z,93.3
2022-10-04T23:55:00.206Z,93.6
